Time;durP1;ratioP1;P1;durP2;ratioP2;P2;SDS_P1;SDS_P2;PMS_P1;PMS_P2;Temp;Humidity;BMP_temperature;BMP_pressure;BME280_temperature;BME280_humidity;BME280_pressure;Samples;Min_cycle;Max_cycle;Signal;HPM_P1;HPM_P2
2021/03/11 00:00:18;;;;;;;15.95;12.48;;;;;;;;;;4988417;28;20037;-65
2021/03/11 00:02:43;;;;;;;15.20;11.13;;;;;;;;;;4989546;28;20038;-65
2021/03/11 00:05:11;;;;;;;17.75;12.07;;;;;;;;;;4989649;28;20038;-66
2021/03/11 00:07:37;;;;;;;18.55;12.40;;;;;;;;;;4982279;28;20459;-67
2021/03/11 00:10:09;;;;;;;20.17;12.05;;;;;;;;;;4989958;28;20034;-70
2021/03/11 00:12:35;;;;;;;19.95;13.48;;;;;;;;;;4990037;28;20027;-68
2021/03/11 00:15:03;;;;;;;15.93;12.05;;;;;;;;;;4989645;28;20022;-66
2021/03/11 00:17:28;;;;;;;16.90;12.88;;;;;;;;;;4988728;28;20128;-66
2021/03/11 00:19:53;;;;;;;17.80;13.35;;;;;;;;;;4989888;28;20806;-66
2021/03/11 00:22:19;;;;;;;17.90;12.20;;;;;;;;;;4989724;28;20081;-66
2021/03/11 00:24:44;;;;;;;19.63;11.57;;;;;;;;;;4988917;28;20041;-67
2021/03/11 00:27:09;;;;;;;17.35;12.27;;;;;;;;;;4989219;28;20034;-67
2021/03/11 00:29:35;;;;;;;14.32;10.38;;;;;;;;;;4989413;28;20407;-67
2021/03/11 00:32:00;;;;;;;11.75;9.63;;;;;;;;;;4990048;28;20057;-67
2021/03/11 00:34:26;;;;;;;12.63;10.57;;;;;;;;;;4987467;28;20050;-67
2021/03/11 00:36:51;;;;;;;17.00;11.65;;;;;;;;;;4988871;28;20535;-67
2021/03/11 00:39:18;;;;;;;17.00;10.85;;;;;;;;;;4989078;28;20088;-68
2021/03/11 00:41:43;;;;;;;14.60;11.75;;;;;;;;;;4988137;28;20037;-67
2021/03/11 00:44:09;;;;;;;13.25;10.20;;;;;;;;;;4989395;28;20113;-67
2021/03/11 00:46:34;;;;;;;14.23;11.40;;;;;;;;;;4989127;28;20038;-67
2021/03/11 00:49:00;;;;;;;17.15;11.07;;;;;;;;;;4989388;28;20026;-66
2021/03/11 00:51:25;;;;;;;16.35;10.57;;;;;;;;;;4989020;28;20041;-66
2021/03/11 00:53:50;;;;;;;14.15;10.93;;;;;;;;;;4988224;28;20034;-67
2021/03/11 00:56:16;;;;;;;15.48;11.82;;;;;;;;;;4989042;28;20026;-67
2021/03/11 00:58:41;;;;;;;12.98;10.32;;;;;;;;;;4989131;28;20033;-66
2021/03/11 01:01:07;;;;;;;16.92;11.63;;;;;;;;;;4987857;28;20467;-66
2021/03/11 01:03:32;;;;;;;19.83;10.90;;;;;;;;;;4988917;28;20049;-65
2021/03/11 01:05:58;;;;;;;18.55;11.82;;;;;;;;;;4989046;28;20041;-66
2021/03/11 01:08:23;;;;;;;16.10;11.43;;;;;;;;;;4988177;28;20460;-65
2021/03/11 01:10:49;;;;;;;15.88;10.80;;;;;;;;;;4988407;28;20026;-65
2021/03/11 01:13:15;;;;;;;14.95;11.30;;;;;;;;;;4988051;28;20046;-66
2021/03/11 01:15:43;;;;;;;15.52;10.63;;;;;;;;;;4987142;28;20114;-66
2021/03/11 01:18:10;;;;;;;14.20;10.82;;;;;;;;;;4986489;28;20698;-66
2021/03/11 01:20:36;;;;;;;15.23;10.25;;;;;;;;;;4987534;28;20027;-67
2021/03/11 01:23:02;;;;;;;21.30;10.45;;;;;;;;;;4988823;28;20022;-67
2021/03/11 01:25:27;;;;;;;14.48;10.65;;;;;;;;;;4988418;28;20136;-67
2021/03/11 01:27:52;;;;;;;17.83;11.75;;;;;;;;;;4987949;28;20088;-67
2021/03/11 01:30:18;;;;;;;14.40;9.85;;;;;;;;;;4986253;28;20403;-67
2021/03/11 01:32:44;;;;;;;21.13;11.55;;;;;;;;;;4985163;28;20439;-66
2021/03/11 01:35:10;;;;;;;14.63;10.65;;;;;;;;;;4987932;28;20022;-66
2021/03/11 01:37:36;;;;;;;13.35;9.95;;;;;;;;;;4987282;28;20338;-66
2021/03/11 01:40:03;;;;;;;14.65;10.63;;;;;;;;;;4988935;28;20041;-66
2021/03/11 01:42:29;;;;;;;13.43;10.23;;;;;;;;;;4988491;28;20554;-67
2021/03/11 01:44:54;;;;;;;17.73;10.68;;;;;;;;;;4987309;28;20034;-66
2021/03/11 01:47:20;;;;;;;17.05;10.90;;;;;;;;;;4988469;28;20030;-66
2021/03/11 01:49:45;;;;;;;13.75;11.23;;;;;;;;;;4986990;28;20467;-65
2021/03/11 01:52:10;;;;;;;12.65;10.25;;;;;;;;;;4987485;28;20038;-66
2021/03/11 01:54:36;;;;;;;14.88;9.88;;;;;;;;;;4986494;28;20027;-66
2021/03/11 01:57:02;;;;;;;12.10;8.95;;;;;;;;;;4985681;28;20089;-67
2021/03/11 01:59:28;;;;;;;13.80;9.88;;;;;;;;;;4984667;28;20040;-67
2021/03/11 02:01:56;;;;;;;16.02;9.85;;;;;;;;;;4988263;28;20105;-66
2021/03/11 02:04:21;;;;;;;13.40;9.50;;;;;;;;;;4987976;28;20520;-66
2021/03/11 02:06:47;;;;;;;19.10;10.23;;;;;;;;;;4988240;28;20116;-67
2021/03/11 02:09:12;;;;;;;12.20;9.30;;;;;;;;;;4987205;28;20182;-66
2021/03/11 02:11:43;;;;;;;16.52;9.75;;;;;;;;;;4988029;28;20089;-65
2021/03/11 02:14:18;;;;;;;17.80;9.07;;;;;;;;;;4987694;28;20034;-65
2021/03/11 02:16:53;;;;;;;15.63;9.77;;;;;;;;;;4986902;28;20483;-66
2021/03/11 02:19:45;;;;;;;14.07;9.38;;;;;;;;;;4986083;28;20030;-65
2021/03/11 02:22:39;;;;;;;13.52;9.52;;;;;;;;;;4991488;28;20113;-66
2021/03/11 02:25:10;;;;;;;12.68;8.88;;;;;;;;;;4990657;28;20125;-65
2021/03/11 02:28:21;;;;;;;15.80;9.18;;;;;;;;;;4990018;28;20053;-65
2021/03/11 02:30:47;;;;;;;;;;;;;;;;;;4970363;28;20133;-66
2021/03/11 02:33:13;;;;;;;14.68;9.50;;;;;;;;;;4987156;28;20168;-66
2021/03/11 02:35:41;;;;;;;16.30;9.43;;;;;;;;;;4990839;28;20062;-66
2021/03/11 02:38:10;;;;;;;11.50;8.80;;;;;;;;;;4990370;28;20048;-66
2021/03/11 02:40:37;;;;;;;13.85;9.95;;;;;;;;;;4991145;28;20445;-66
2021/03/11 02:43:05;;;;;;;13.23;10.10;;;;;;;;;;4990456;28;20042;-66
2021/03/11 02:45:32;;;;;;;16.75;9.73;;;;;;;;;;4991223;28;20065;-65
2021/03/11 02:48:01;;;;;;;14.40;8.75;;;;;;;;;;4991678;28;20125;-65
2021/03/11 02:50:28;;;;;;;19.23;9.63;;;;;;;;;;4989849;28;20038;-66
2021/03/11 02:52:56;;;;;;;13.30;9.27;;;;;;;;;;4990492;28;20030;-66
2021/03/11 02:55:22;;;;;;;12.55;9.27;;;;;;;;;;4990894;28;20073;-66
2021/03/11 02:57:50;;;;;;;11.90;9.07;;;;;;;;;;4991740;28;20026;-66
2021/03/11 03:00:16;;;;;;;16.70;8.82;;;;;;;;;;4989607;28;20045;-67
2021/03/11 03:02:43;;;;;;;14.60;9.52;;;;;;;;;;4987014;28;20038;-67
2021/03/11 03:05:10;;;;;;;14.88;10.13;;;;;;;;;;4989688;28;20096;-67
2021/03/11 03:07:42;;;;;;;10.65;8.52;;;;;;;;;;4990744;28;20507;-65
2021/03/11 03:10:09;;;;;;;11.10;8.70;;;;;;;;;;4990184;28;20113;-66
2021/03/11 03:12:36;;;;;;;17.13;9.80;;;;;;;;;;4989493;28;20034;-66
2021/03/11 03:15:04;;;;;;;17.10;10.15;;;;;;;;;;4990861;28;20033;-65
2021/03/11 03:17:31;;;;;;;14.43;9.85;;;;;;;;;;4990417;28;20042;-66
2021/03/11 03:19:57;;;;;;;11.40;8.95;;;;;;;;;;4989954;28;20054;-66
2021/03/11 03:22:23;;;;;;;14.63;9.80;;;;;;;;;;4987638;28;20093;-66
2021/03/11 03:24:49;;;;;;;13.65;9.77;;;;;;;;;;4990259;28;20042;-66
2021/03/11 03:27:15;;;;;;;15.32;9.40;;;;;;;;;;4990842;28;20022;-58
2021/03/11 03:29:43;;;;;;;12.93;9.35;;;;;;;;;;4990034;28;20068;-58
2021/03/11 03:32:09;;;;;;;13.43;9.63;;;;;;;;;;4990700;28;20114;-59
2021/03/11 03:34:34;;;;;;;12.40;9.25;;;;;;;;;;4990367;28;20109;-58
2021/03/11 03:36:59;;;;;;;12.15;9.07;;;;;;;;;;4990649;28;20064;-59
2021/03/11 03:39:26;;;;;;;13.45;9.88;;;;;;;;;;4989349;28;20138;-59
2021/03/11 03:41:55;;;;;;;13.35;8.98;;;;;;;;;;4990586;28;20026;-58
2021/03/11 03:44:23;;;;;;;13.00;9.85;;;;;;;;;;4989979;28;20037;-58
2021/03/11 03:46:49;;;;;;;12.88;9.80;;;;;;;;;;4989389;28;20053;-58
2021/03/11 03:49:15;;;;;;;14.05;9.63;;;;;;;;;;4989044;28;20069;-58
2021/03/11 03:51:49;;;;;;;12.85;9.40;;;;;;;;;;4990225;28;20034;-59
2021/03/11 03:54:30;;;;;;;11.80;8.88;;;;;;;;;;4987846;28;20030;-58
2021/03/11 03:57:13;;;;;;;10.93;8.82;;;;;;;;;;4986444;28;20026;-59
2021/03/11 03:59:40;;;;;;;14.55;9.38;;;;;;;;;;4989252;28;20034;-58
2021/03/11 04:02:06;;;;;;;12.48;9.50;;;;;;;;;;4989055;28;20472;-58
2021/03/11 04:04:38;;;;;;;13.55;9.13;;;;;;;;;;4986870;28;20053;-59
2021/03/11 04:07:07;;;;;;;13.95;9.23;;;;;;;;;;4990193;28;20101;-59
2021/03/11 04:09:34;;;;;;;12.27;9.32;;;;;;;;;;4989907;28;20043;-59
2021/03/11 04:11:59;;;;;;;14.45;9.15;;;;;;;;;;4989610;28;20030;-58
2021/03/11 04:14:27;;;;;;;14.32;8.55;;;;;;;;;;4988695;28;20042;-59
2021/03/11 04:16:54;;;;;;;12.30;8.88;;;;;;;;;;4989731;28;20058;-59
2021/03/11 04:19:22;;;;;;;14.30;8.95;;;;;;;;;;4988701;28;20049;-59
2021/03/11 04:21:48;;;;;;;12.82;9.15;;;;;;;;;;4989287;28;20042;-59
2021/03/11 04:24:15;;;;;;;9.85;7.82;;;;;;;;;;4989567;28;20081;-59
2021/03/11 04:26:40;;;;;;;13.45;9.02;;;;;;;;;;4989250;28;20032;-59
2021/03/11 04:29:07;;;;;;;11.70;9.13;;;;;;;;;;4988586;28;20450;-59
2021/03/11 04:31:33;;;;;;;11.63;8.20;;;;;;;;;;4988784;28;20031;-59
2021/03/11 04:34:00;;;;;;;11.63;8.40;;;;;;;;;;4989464;28;20402;-59
2021/03/11 04:36:26;;;;;;;9.98;7.70;;;;;;;;;;4989137;28;20022;-58
2021/03/11 04:38:52;;;;;;;11.30;7.82;;;;;;;;;;4988168;28;20066;-59
2021/03/11 04:41:18;;;;;;;12.02;7.68;;;;;;;;;;4989076;28;20065;-59
2021/03/11 04:43:44;;;;;;;8.35;6.88;;;;;;;;;;4987859;28;20038;-58
2021/03/11 04:46:11;;;;;;;13.82;8.55;;;;;;;;;;4989579;28;20077;-58
2021/03/11 04:48:37;;;;;;;16.85;7.18;;;;;;;;;;4987826;28;20045;-58
2021/03/11 04:51:03;;;;;;;10.68;7.38;;;;;;;;;;4989252;28;20022;-59
2021/03/11 04:53:30;;;;;;;9.93;7.57;;;;;;;;;;4988956;28;20101;-58
2021/03/11 04:55:56;;;;;;;13.07;7.50;;;;;;;;;;4988206;28;20022;-58
2021/03/11 04:58:22;;;;;;;10.68;7.25;;;;;;;;;;4988314;28;20038;-59
2021/03/11 05:00:49;;;;;;;13.20;7.43;;;;;;;;;;4989220;28;20030;-59
2021/03/11 05:03:16;;;;;;;13.25;8.57;;;;;;;;;;4987894;28;20407;-58
2021/03/11 05:05:42;;;;;;;14.20;7.80;;;;;;;;;;4988723;28;20034;-58
2021/03/11 05:08:08;;;;;;;12.00;7.28;;;;;;;;;;4988375;28;20500;-60
2021/03/11 05:10:35;;;;;;;10.70;7.10;;;;;;;;;;4988363;28;20026;-58
2021/03/11 05:13:01;;;;;;;13.40;7.75;;;;;;;;;;4987848;28;20026;-58
2021/03/11 05:15:27;;;;;;;15.57;8.27;;;;;;;;;;4985793;28;20355;-58
2021/03/11 05:17:52;;;;;;;12.27;7.07;;;;;;;;;;4988690;28;20037;-60
2021/03/11 05:20:18;;;;;;;10.13;7.15;;;;;;;;;;4986785;28;20034;-58
2021/03/11 05:22:44;;;;;;;10.98;7.38;;;;;;;;;;4989018;28;20037;-60
2021/03/11 05:25:11;;;;;;;11.25;6.65;;;;;;;;;;4987406;28;20080;-58
2021/03/11 05:27:38;;;;;;;14.57;6.97;;;;;;;;;;4988224;28;20034;-59
2021/03/11 05:30:05;;;;;;;9.65;6.55;;;;;;;;;;4987359;28;20343;-59
2021/03/11 05:32:31;;;;;;;10.98;7.28;;;;;;;;;;4987729;28;20112;-59
2021/03/11 05:34:56;;;;;;;11.02;7.18;;;;;;;;;;4988383;28;20504;-59
2021/03/11 05:37:21;;;;;;;11.43;6.72;;;;;;;;;;4988191;28;20673;-59
2021/03/11 05:39:49;;;;;;;9.05;6.78;;;;;;;;;;4987968;28;20053;-59
2021/03/11 05:42:17;;;;;;;9.15;6.10;;;;;;;;;;4987014;28;20061;-59
2021/03/11 05:44:43;;;;;;;8.32;6.43;;;;;;;;;;4988507;28;20096;-59
2021/03/11 05:47:11;;;;;;;9.10;6.53;;;;;;;;;;4987615;28;20030;-59
2021/03/11 05:49:39;;;;;;;7.20;5.72;;;;;;;;;;4986507;28;20022;-59
2021/03/11 05:52:05;;;;;;;8.15;6.20;;;;;;;;;;4987704;28;20041;-59
2021/03/11 05:54:32;;;;;;;8.85;6.25;;;;;;;;;;4988142;28;20101;-59
2021/03/11 05:56:58;;;;;;;10.50;6.25;;;;;;;;;;4988179;28;20132;-59
2021/03/11 05:59:23;;;;;;;10.57;6.45;;;;;;;;;;4986943;28;20034;-59
2021/03/11 06:01:51;;;;;;;12.52;6.53;;;;;;;;;;4986635;28;20030;-59
2021/03/11 06:04:17;;;;;;;8.63;5.90;;;;;;;;;;4988042;28;20022;-59
2021/03/11 06:06:44;;;;;;;7.97;6.10;;;;;;;;;;4986485;28;20045;-59
2021/03/11 06:09:10;;;;;;;8.50;6.32;;;;;;;;;;4988671;28;20039;-59
2021/03/11 06:11:38;;;;;;;7.30;5.93;;;;;;;;;;4987033;28;20037;-59
2021/03/11 06:14:06;;;;;;;9.45;5.93;;;;;;;;;;4987138;28;20034;-59
2021/03/11 06:16:34;;;;;;;9.25;6.28;;;;;;;;;;4987871;28;20165;-59
2021/03/11 06:18:59;;;;;;;9.57;6.05;;;;;;;;;;4985100;28;20073;-59
2021/03/11 06:21:25;;;;;;;8.90;6.50;;;;;;;;;;4986542;28;20070;-59
2021/03/11 06:23:50;;;;;;;10.35;5.75;;;;;;;;;;4985188;28;20058;-59
2021/03/11 06:26:16;;;;;;;11.95;6.55;;;;;;;;;;4984130;28;20043;-58
2021/03/11 06:28:44;;;;;;;9.20;6.65;;;;;;;;;;4986780;28;20096;-59
2021/03/11 06:31:17;;;;;;;10.70;6.03;;;;;;;;;;4983018;28;20125;-58
2021/03/11 06:33:42;;;;;;;8.10;6.13;;;;;;;;;;4985205;28;20054;-59
2021/03/11 06:36:15;;;;;;;9.20;6.25;;;;;;;;;;4986372;28;20664;-59
2021/03/11 06:38:40;;;;;;;9.98;6.25;;;;;;;;;;4981910;28;20034;-58
2021/03/11 06:41:06;;;;;;;9.45;5.88;;;;;;;;;;4980792;28;20034;-59
2021/03/11 06:43:32;;;;;;;7.43;5.10;;;;;;;;;;4987793;28;20116;-59
2021/03/11 06:46:07;;;;;;;9.50;6.38;;;;;;;;;;4988073;28;20062;-57
2021/03/11 06:48:33;;;;;;;10.00;6.38;;;;;;;;;;4983959;28;20034;-57
2021/03/11 06:51:01;;;;;;;8.82;5.93;;;;;;;;;;4987408;28;20188;-59
2021/03/11 06:53:27;;;;;;;11.77;6.18;;;;;;;;;;4986713;28;20037;-59
2021/03/11 06:55:53;;;;;;;8.00;5.72;;;;;;;;;;4988080;28;20129;-59
2021/03/11 06:58:18;;;;;;;7.07;5.07;;;;;;;;;;4985973;28;20137;-59
2021/03/11 07:00:45;;;;;;;6.28;4.95;;;;;;;;;;4988052;28;20038;-58
2021/03/11 07:03:11;;;;;;;17.95;6.05;;;;;;;;;;4987886;28;20131;-59
2021/03/11 07:05:39;;;;;;;7.72;4.95;;;;;;;;;;4987442;28;20054;-59
2021/03/11 07:08:09;;;;;;;6.93;4.65;;;;;;;;;;4988146;28;20026;-59
2021/03/11 07:10:36;;;;;;;6.13;4.32;;;;;;;;;;4990893;28;20034;-59
2021/03/11 07:13:03;;;;;;;6.47;4.70;;;;;;;;;;4987793;28;20065;-59
2021/03/11 07:15:32;;;;;;;7.75;4.53;;;;;;;;;;4979921;28;20096;-59
2021/03/11 07:17:58;;;;;;;6.40;4.03;;;;;;;;;;4982963;28;20053;-59
2021/03/11 07:20:31;;;;;;;8.02;4.68;;;;;;;;;;4976862;28;20046;-60
2021/03/11 07:23:04;;;;;;;16.02;4.07;;;;;;;;;;4986888;28;20034;-59
2021/03/11 07:25:49;;;;;;;5.75;4.18;;;;;;;;;;4988161;28;20053;-59
2021/03/11 07:28:29;;;;;;;4.82;3.28;;;;;;;;;;4982358;28;20081;-59
2021/03/11 07:30:56;;;;;;;9.85;4.57;;;;;;;;;;4988506;28;20361;-59
2021/03/11 07:33:26;;;;;;;6.72;3.97;;;;;;;;;;4988686;28;20049;-59
2021/03/11 07:35:59;;;;;;;5.47;3.47;;;;;;;;;;4989219;28;20388;-59
2021/03/11 07:38:28;;;;;;;5.38;3.47;;;;;;;;;;4989366;28;20602;-59
2021/03/11 07:40:55;;;;;;;5.72;3.67;;;;;;;;;;4987842;28;20034;-60
2021/03/11 07:43:22;;;;;;;6.18;3.30;;;;;;;;;;4986057;28;20030;-60
2021/03/11 07:45:48;;;;;;;6.75;3.67;;;;;;;;;;4989781;28;21974;-60
2021/03/11 07:48:14;;;;;;;5.47;3.28;;;;;;;;;;4989224;28;20132;-59
2021/03/11 07:50:43;;;;;;;5.13;3.72;;;;;;;;;;4990579;28;20034;-60
2021/03/11 07:53:08;;;;;;;5.25;3.20;;;;;;;;;;4989751;28;20030;-60
2021/03/11 07:55:34;;;;;;;7.68;3.30;;;;;;;;;;4988206;28;20519;-60
2021/03/11 07:58:12;;;;;;;7.13;3.38;;;;;;;;;;4989363;28;20041;-60
2021/03/11 08:00:38;;;;;;;7.93;4.07;;;;;;;;;;4989934;28;20044;-68
2021/03/11 08:03:06;;;;;;;5.32;3.70;;;;;;;;;;4988215;28;20790;-68
2021/03/11 08:05:32;;;;;;;6.22;3.50;;;;;;;;;;4987929;28;20035;-68
2021/03/11 08:08:10;;;;;;;4.93;3.05;;;;;;;;;;4987304;28;20045;-68
2021/03/11 08:10:40;;;;;;;5.15;3.20;;;;;;;;;;4988144;28;20034;-68
2021/03/11 08:13:37;;;;;;;4.63;3.20;;;;;;;;;;4989396;28;20053;-68
2021/03/11 08:16:08;;;;;;;6.03;3.90;;;;;;;;;;4989985;28;20050;-69
2021/03/11 08:18:34;;;;;;;8.18;3.72;;;;;;;;;;4986939;28;20121;-68
2021/03/11 08:21:00;;;;;;;5.47;3.03;;;;;;;;;;4989730;28;20511;-68
2021/03/11 08:23:31;;;;;;;5.85;3.45;;;;;;;;;;4987397;28;20042;-67
2021/03/11 08:25:56;;;;;;;9.87;3.20;;;;;;;;;;4990164;28;20122;-67
2021/03/11 08:28:22;;;;;;;6.53;3.60;;;;;;;;;;4989484;28;20122;-68
2021/03/11 08:30:53;;;;;;;6.15;3.30;;;;;;;;;;4988215;28;20129;-69
2021/03/11 08:33:18;;;;;;;7.80;3.30;;;;;;;;;;4986348;28;20501;-69
2021/03/11 08:35:47;;;;;;;6.32;3.10;;;;;;;;;;4989570;28;20130;-68
2021/03/11 08:38:18;;;;;;;7.97;4.18;;;;;;;;;;4987455;28;20034;-68
2021/03/11 08:40:44;;;;;;;7.18;3.83;;;;;;;;;;4988778;28;20040;-68
2021/03/11 08:43:10;;;;;;;6.90;3.70;;;;;;;;;;4989279;28;20022;-69
2021/03/11 08:48:17;;;;;;;7.22;3.83;;;;;;;;;;4987836;28;20038;-68
2021/03/11 08:50:47;;;;;;;6.72;3.58;;;;;;;;;;4986447;28;20096;-68
2021/03/11 08:53:35;;;;;;;8.18;4.30;;;;;;;;;;4988393;28;20046;-68
2021/03/11 08:56:01;;;;;;;6.75;3.85;;;;;;;;;;4988109;28;20066;-68
2021/03/11 08:58:28;;;;;;;17.98;3.83;;;;;;;;;;4987228;28;20072;-68
2021/03/11 09:01:03;;;;;;;7.90;4.20;;;;;;;;;;4988236;28;20029;-68
2021/03/11 09:03:40;;;;;;;6.28;3.78;;;;;;;;;;4987092;28;20034;-68
2021/03/11 09:06:07;;;;;;;5.20;3.78;;;;;;;;;;4984344;28;20042;-69
2021/03/11 09:08:37;;;;;;;7.93;4.20;;;;;;;;;;4988132;28;20026;-69
2021/03/11 09:11:15;;;;;;;7.97;4.50;;;;;;;;;;4989193;28;20057;-69
2021/03/11 09:13:42;;;;;;;7.78;4.32;;;;;;;;;;4988792;28;20504;-69
2021/03/11 09:16:07;;;;;;;6.15;3.90;;;;;;;;;;4988631;28;20037;-69
2021/03/11 09:18:34;;;;;;;8.00;3.88;;;;;;;;;;4988408;28;20372;-68
2021/03/11 09:21:00;;;;;;;5.78;4.03;;;;;;;;;;4989004;28;20069;-68
2021/03/11 09:23:39;;;;;;;7.28;3.70;;;;;;;;;;4986388;28;20038;-68
2021/03/11 09:26:05;;;;;;;6.43;4.32;;;;;;;;;;4984359;28;20041;-68
2021/03/11 09:28:32;;;;;;;5.78;3.67;;;;;;;;;;4986061;28;20042;-69
2021/03/11 09:30:57;;;;;;;5.30;3.47;;;;;;;;;;4987208;28;20117;-68
2021/03/11 09:33:23;;;;;;;6.97;3.72;;;;;;;;;;4987634;28;20141;-68
2021/03/11 09:35:50;;;;;;;8.82;4.32;;;;;;;;;;4988543;28;20033;-68
2021/03/11 09:38:26;;;;;;;7.25;3.60;;;;;;;;;;4988460;28;20052;-71
2021/03/11 09:40:58;;;;;;;7.35;3.97;;;;;;;;;;4988212;28;20057;-68
2021/03/11 09:43:39;;;;;;;7.43;4.05;;;;;;;;;;4987268;28;20045;-68
2021/03/11 09:46:11;;;;;;;6.25;4.75;;;;;;;;;;4987141;28;20540;-68
2021/03/11 09:48:40;;;;;;;6.88;4.75;;;;;;;;;;4983268;28;20037;-68
2021/03/11 09:51:14;;;;;;;7.57;4.50;;;;;;;;;;4979622;28;20042;-68
2021/03/11 09:53:50;;;;;;;6.65;4.20;;;;;;;;;;4987792;28;20034;-68
2021/03/11 09:56:31;;;;;;;7.15;4.20;;;;;;;;;;4985859;28;20030;-68
2021/03/11 09:59:00;;;;;;;;;;;;;;;;;;4987665;28;20375;-69
2021/03/11 10:01:30;;;;;;;9.18;3.95;;;;;;;;;;4986491;28;19959;-67
2021/03/11 10:03:56;;;;;;;5.35;3.90;;;;;;;;;;4983536;28;20042;-67
2021/03/11 10:06:24;;;;;;;7.65;4.10;;;;;;;;;;4986330;28;20046;-67
2021/03/11 10:08:55;;;;;;;6.97;4.32;;;;;;;;;;4988574;28;20053;-67
2021/03/11 10:11:29;;;;;;;5.40;3.70;;;;;;;;;;4982912;28;20042;-66
2021/03/11 10:14:02;;;;;;;6.85;3.85;;;;;;;;;;4988475;28;20066;-67
2021/03/11 10:16:30;;;;;;;5.97;3.78;;;;;;;;;;4988062;28;20500;-67
2021/03/11 10:19:17;;;;;;;6.93;3.63;;;;;;;;;;4986221;28;20065;-66
2021/03/11 10:21:46;;;;;;;14.57;3.78;;;;;;;;;;4987925;28;20359;-66
2021/03/11 10:24:13;;;;;;;6.80;3.75;;;;;;;;;;4988066;28;20042;-67
2021/03/11 10:26:39;;;;;;;6.47;3.53;;;;;;;;;;4987937;28;20491;-67
2021/03/11 10:29:07;;;;;;;6.43;3.55;;;;;;;;;;4986857;28;20065;-66
2021/03/11 10:31:32;;;;;;;6.07;3.33;;;;;;;;;;4986512;28;20423;-67
2021/03/11 10:34:03;;;;;;;5.45;3.70;;;;;;;;;;4987037;28;20118;-67
2021/03/11 10:36:29;;;;;;;4.97;3.38;;;;;;;;;;4984345;28;20149;-67
2021/03/11 10:39:12;;;;;;;4.97;3.47;;;;;;;;;;4984844;28;20041;-67
2021/03/11 10:42:00;;;;;;;5.82;3.33;;;;;;;;;;4987278;28;20056;-67
2021/03/11 10:44:26;;;;;;;4.45;3.25;;;;;;;;;;4969031;28;20532;-67
2021/03/11 10:46:52;;;;;;;4.68;3.00;;;;;;;;;;4988611;28;20121;-67
2021/03/11 10:49:33;;;;;;;5.97;3.63;;;;;;;;;;5008147;28;20550;-66
2021/03/11 10:51:58;;;;;;;4.80;2.75;;;;;;;;;;4989624;28;20053;-66
2021/03/11 10:54:30;;;;;;;5.60;2.67;;;;;;;;;;4991261;28;20431;-66
2021/03/11 10:57:13;;;;;;;4.20;2.70;;;;;;;;;;4987819;28;20086;-66
2021/03/11 10:59:58;;;;;;;4.72;2.53;;;;;;;;;;4981533;28;20030;-66
2021/03/11 11:02:28;;;;;;;4.25;2.70;;;;;;;;;;4988574;28;20041;-67
2021/03/11 11:04:55;;;;;;;5.30;2.60;;;;;;;;;;4990680;28;20121;-66
2021/03/11 11:07:21;;;;;;;4.75;2.75;;;;;;;;;;4988814;28;20034;-66
2021/03/11 11:09:48;;;;;;;4.20;2.20;;;;;;;;;;4990099;28;20034;-68
2021/03/11 11:12:16;;;;;;;3.80;2.33;;;;;;;;;;4989780;28;20097;-66
2021/03/11 11:14:43;;;;;;;4.30;2.28;;;;;;;;;;4990744;28;20045;-68
2021/03/11 11:17:09;;;;;;;3.70;2.20;;;;;;;;;;4988271;28;20038;-68
2021/03/11 11:19:34;;;;;;;5.35;2.40;;;;;;;;;;4984333;28;20030;-66
2021/03/11 11:22:00;;;;;;;6.70;2.10;;;;;;;;;;4985609;28;20062;-67
2021/03/11 11:24:26;;;;;;;3.60;2.05;;;;;;;;;;4990497;28;20038;-65
2021/03/11 11:26:56;;;;;;;3.80;2.30;;;;;;;;;;4988516;28;20045;-65
2021/03/11 11:29:25;;;;;;;4.63;2.15;;;;;;;;;;4989472;28;20030;-70
2021/03/11 11:31:51;;;;;;;3.85;1.98;;;;;;;;;;4992334;28;20081;-68
2021/03/11 11:34:19;;;;;;;4.63;2.05;;;;;;;;;;4990943;28;20077;-68
2021/03/11 11:36:44;;;;;;;3.53;1.90;;;;;;;;;;4992117;28;20034;-68
2021/03/11 11:39:10;;;;;;;2.83;1.95;;;;;;;;;;4989763;28;20097;-68
2021/03/11 11:41:39;;;;;;;2.78;1.70;;;;;;;;;;4988915;28;20547;-69
2021/03/11 11:44:05;;;;;;;3.30;1.90;;;;;;;;;;4988516;28;20061;-66
2021/03/11 11:46:31;;;;;;;3.15;1.73;;;;;;;;;;4990479;28;20045;-66
2021/03/11 11:48:56;;;;;;;5.28;2.30;;;;;;;;;;4990024;28;20034;-67
2021/03/11 11:51:22;;;;;;;3.47;1.75;;;;;;;;;;4989888;28;20113;-68
2021/03/11 11:53:47;;;;;;;4.32;2.33;;;;;;;;;;4989191;28;20027;-69
2021/03/11 11:56:13;;;;;;;3.80;1.95;;;;;;;;;;4990063;28;20019;-67
2021/03/11 11:58:44;;;;;;;4.85;1.98;;;;;;;;;;4989357;28;20034;-67
2021/03/11 12:01:10;;;;;;;6.38;2.55;;;;;;;;;;4986385;28;20483;-67
2021/03/11 12:03:35;;;;;;;4.18;2.15;;;;;;;;;;4989886;28;20034;-67
2021/03/11 12:06:01;;;;;;;2.92;1.80;;;;;;;;;;4989228;28;20057;-67
2021/03/11 12:08:26;;;;;;;4.93;2.58;;;;;;;;;;4988644;28;20044;-71
2021/03/11 12:10:52;;;;;;;4.35;2.60;;;;;;;;;;4989855;28;20069;-67
2021/03/11 12:13:17;;;;;;;3.05;1.90;;;;;;;;;;4988598;28;20022;-68
2021/03/11 12:15:42;;;;;;;3.20;1.80;;;;;;;;;;4987757;28;20053;-67
2021/03/11 12:18:08;;;;;;;3.33;1.83;;;;;;;;;;4988858;28;20036;-67
2021/03/11 12:20:35;;;;;;;3.17;1.52;;;;;;;;;;4985748;28;20053;-66
2021/03/11 12:23:00;;;;;;;3.50;1.98;;;;;;;;;;4988769;28;20031;-68
2021/03/11 12:25:26;;;;;;;2.92;1.77;;;;;;;;;;4988259;28;20687;-67
2021/03/11 12:27:51;;;;;;;3.22;2.00;;;;;;;;;;4987357;28;20042;-67
2021/03/11 12:30:17;;;;;;;4.28;2.17;;;;;;;;;;4988492;28;20033;-67
2021/03/11 12:32:43;;;;;;;3.20;1.90;;;;;;;;;;4988177;28;20038;-66
2021/03/11 12:35:08;;;;;;;4.47;2.53;;;;;;;;;;4987220;28;20526;-66
2021/03/11 12:37:34;;;;;;;2.92;1.73;;;;;;;;;;4988211;28;20042;-66
2021/03/11 12:39:59;;;;;;;2.72;1.50;;;;;;;;;;4985041;28;20030;-64
2021/03/11 12:42:24;;;;;;;3.78;1.73;;;;;;;;;;4982465;28;20460;-65
2021/03/11 12:44:50;;;;;;;4.53;1.77;;;;;;;;;;4986860;28;20030;-63
2021/03/11 12:47:16;;;;;;;3.33;1.38;;;;;;;;;;4988459;28;20117;-64
2021/03/11 12:49:41;;;;;;;3.38;1.10;;;;;;;;;;4987045;28;20034;-64
2021/03/11 12:52:06;;;;;;;2.08;1.25;;;;;;;;;;4987298;28;20038;-65
2021/03/11 12:54:32;;;;;;;2.58;1.52;;;;;;;;;;4986963;28;20031;-63
2021/03/11 12:56:57;;;;;;;3.00;1.52;;;;;;;;;;5004380;28;20524;-63
2021/03/11 12:59:23;;;;;;;2.40;1.30;;;;;;;;;;4984032;28;20057;-63
2021/03/11 13:01:48;;;;;;;2.83;1.42;;;;;;;;;;4987853;28;20030;-66
2021/03/11 13:04:13;;;;;;;2.53;1.27;;;;;;;;;;4987317;28;20031;-64
2021/03/11 13:06:39;;;;;;;1.88;1.05;;;;;;;;;;4987120;28;20349;-64
2021/03/11 13:09:04;;;;;;;3.05;1.38;;;;;;;;;;4986021;28;20104;-64
2021/03/11 13:11:30;;;;;;;2.17;1.25;;;;;;;;;;4988029;28;20112;-65
2021/03/11 13:13:55;;;;;;;2.03;1.10;;;;;;;;;;4988859;28;20041;-64
2021/03/11 13:16:20;;;;;;;2.08;1.10;;;;;;;;;;4987580;28;20399;-65
2021/03/11 13:18:48;;;;;;;1.98;1.05;;;;;;;;;;4987574;28;20037;-64
2021/03/11 13:21:14;;;;;;;3.50;1.40;;;;;;;;;;4987627;28;20093;-64
2021/03/11 13:23:39;;;;;;;1.88;1.00;;;;;;;;;;4988425;28;20372;-64
2021/03/11 13:26:04;;;;;;;3.97;1.83;;;;;;;;;;4988484;28;20018;-65
2021/03/11 13:28:30;;;;;;;4.53;1.67;;;;;;;;;;4987057;28;20093;-66
2021/03/11 13:30:55;;;;;;;2.70;1.50;;;;;;;;;;4987866;28;20026;-65
2021/03/11 13:33:21;;;;;;;3.05;1.60;;;;;;;;;;4985032;28;20030;-65
2021/03/11 13:35:46;;;;;;;2.65;1.50;;;;;;;;;;4987765;28;20030;-65
2021/03/11 13:38:11;;;;;;;2.70;1.40;;;;;;;;;;4988751;28;20471;-65
2021/03/11 13:40:37;;;;;;;2.53;1.42;;;;;;;;;;4987037;28;20719;-66
2021/03/11 13:43:02;;;;;;;3.95;1.30;;;;;;;;;;4986481;28;20030;-63
2021/03/11 13:45:31;;;;;;;3.95;1.40;;;;;;;;;;4986724;28;20045;-65
2021/03/11 13:47:57;;;;;;;2.90;1.10;;;;;;;;;;4988529;28;20407;-65
2021/03/11 13:50:23;;;;;;;2.97;1.35;;;;;;;;;;4985367;28;20026;-65
2021/03/11 13:52:48;;;;;;;2.63;1.17;;;;;;;;;;4987908;28;20441;-66
2021/03/11 13:55:15;;;;;;;4.93;1.27;;;;;;;;;;4988140;28;20169;-65
2021/03/11 13:57:41;;;;;;;4.25;1.38;;;;;;;;;;4986880;28;20327;-66
2021/03/11 14:00:08;;;;;;;2.78;1.50;;;;;;;;;;4985668;28;20124;-66
2021/03/11 14:02:36;;;;;;;4.10;1.63;;;;;;;;;;4986341;28;20023;-66
2021/03/11 14:05:02;;;;;;;5.28;1.60;;;;;;;;;;4985375;28;20030;-67
2021/03/11 14:07:27;;;;;;;3.70;1.67;;;;;;;;;;4984941;28;20109;-67
2021/03/11 14:09:53;;;;;;;5.13;1.80;;;;;;;;;;4984758;28;20062;-67
2021/03/11 14:12:18;;;;;;;4.90;1.83;;;;;;;;;;4983858;28;20038;-67
2021/03/11 14:14:43;;;;;;;8.60;1.90;;;;;;;;;;4987234;28;20084;-67
2021/03/11 14:17:09;;;;;;;4.28;1.50;;;;;;;;;;4990090;28;20422;-68
2021/03/11 14:19:34;;;;;;;3.55;1.30;;;;;;;;;;4984976;28;20204;-66
2021/03/11 14:22:00;;;;;;;5.13;1.30;;;;;;;;;;4983311;28;20057;-67
2021/03/11 14:24:26;;;;;;;6.18;1.75;;;;;;;;;;4977749;28;20034;-68
2021/03/11 14:26:51;;;;;;;11.15;1.50;;;;;;;;;;4990836;28;20026;-69
2021/03/11 14:29:17;;;;;;;5.88;1.63;;;;;;;;;;4988617;28;20460;-69
2021/03/11 14:31:42;;;;;;;4.90;1.50;;;;;;;;;;4989022;28;20049;-69
2021/03/11 14:34:07;;;;;;;3.75;1.63;;;;;;;;;;4990610;28;20026;-68
2021/03/11 14:36:33;;;;;;;7.07;1.63;;;;;;;;;;4991115;28;20503;-69
2021/03/11 14:38:58;;;;;;;5.43;1.63;;;;;;;;;;4991818;28;20044;-66
2021/03/11 14:41:23;;;;;;;4.22;1.40;;;;;;;;;;4990256;28;20026;-67